Time;durP1;ratioP1;P1;durP2;ratioP2;P2;SDS_P1;SDS_P2;PMS_P1;PMS_P2;Temp;Humidity;BMP_temperature;BMP_pressure;BME280_temperature;BME280_humidity;BME280_pressure;Samples;Min_cycle;Max_cycle;Signal;HPM_P1;HPM_P2
2022/03/23 00:00:26;;;;;;;;;12.50;7.75;;;;;;;;5039866;28;51143;-48
2022/03/23 00:03:23;;;;;;;;;8.75;7.00;;;;;;;;5040216;28;51126;-53
2022/03/23 00:06:18;;;;;;;;;9.50;7.50;;;;;;;;5036687;28;51149;-47
2022/03/23 00:09:04;;;;;;;;;13.00;7.75;;;;;;;;5040165;28;51273;-56
2022/03/23 00:11:49;;;;;;;;;18.75;9.75;;;;;;;;5039793;28;51497;-49
2022/03/23 00:14:35;;;;;;;;;12.50;7.00;;;;;;;;5038177;28;51242;-51
2022/03/23 00:17:39;;;;;;;;;12.00;8.50;;;;;;;;5039975;28;51396;-53
2022/03/23 00:20:25;;;;;;;;;13.25;8.25;;;;;;;;5036286;28;51160;-54
2022/03/23 00:23:10;;;;;;;;;11.00;8.25;;;;;;;;5039708;28;51184;-52
2022/03/23 00:25:54;;;;;;;;;13.00;8.00;;;;;;;;5036434;28;51541;-52
2022/03/23 00:28:49;;;;;;;;;16.75;8.25;;;;;;;;5039565;28;51160;-53
2022/03/23 00:31:35;;;;;;;;;11.25;5.00;;;;;;;;5036269;28;51390;-49
2022/03/23 00:34:22;;;;;;;;;13.00;8.25;;;;;;;;5039458;28;51196;-51
2022/03/23 00:37:07;;;;;;;;;7.50;7.50;;;;;;;;5036648;28;51325;-51
2022/03/23 00:39:51;;;;;;;;;9.00;7.25;;;;;;;;5039465;28;51094;-48
2022/03/23 00:42:37;;;;;;;;;11.00;6.50;;;;;;;;5034760;28;51413;-53
2022/03/23 00:45:22;;;;;;;;;10.50;7.75;;;;;;;;5038590;28;51566;-54
2022/03/23 00:48:18;;;;;;;;;11.25;7.75;;;;;;;;5039378;28;51081;-50
2022/03/23 00:51:03;;;;;;;;;7.75;7.50;;;;;;;;5039357;28;51227;-50
2022/03/23 00:53:57;;;;;;;;;13.50;8.25;;;;;;;;5035994;28;51184;-53
2022/03/23 00:57:07;;;;;;;;;12.25;8.25;;;;;;;;5038201;28;51488;-53
2022/03/23 00:59:51;;;;;;;;;12.75;9.50;;;;;;;;5039605;28;51144;-56
2022/03/23 01:02:35;;;;;;;;;14.50;7.50;;;;;;;;5038714;28;51304;-47
2022/03/23 01:05:20;;;;;;;;;16.00;9.00;;;;;;;;5037329;28;52583;-48
2022/03/23 01:08:04;;;;;;;;;16.50;8.00;;;;;;;;5038963;28;51729;-53
2022/03/23 01:10:55;;;;;;;;;11.75;7.00;;;;;;;;5037856;28;51508;-49
2022/03/23 01:13:45;;;;;;;;;12.75;8.00;;;;;;;;5030395;28;51035;-50
2022/03/23 01:16:32;;;;;;;;;14.25;8.50;;;;;;;;5038725;28;51417;-48
2022/03/23 01:19:25;;;;;;;;;16.25;9.25;;;;;;;;5038594;28;51024;-50
2022/03/23 01:22:09;;;;;;;;;14.25;6.00;;;;;;;;5034852;28;51393;-53
2022/03/23 01:25:05;;;;;;;;;11.75;8.25;;;;;;;;5037596;28;51127;-46
2022/03/23 01:27:52;;;;;;;;;9.00;6.75;;;;;;;;5035957;28;51445;-52
2022/03/23 01:30:42;;;;;;;;;11.25;6.75;;;;;;;;5038422;28;51216;-48
2022/03/23 01:33:39;;;;;;;;;9.75;7.00;;;;;;;;5036975;28;51442;-57
2022/03/23 01:36:45;;;;;;;;;9.00;6.50;;;;;;;;5034261;28;51216;-49
2022/03/23 01:39:31;;;;;;;;;11.75;7.75;;;;;;;;5037985;28;51065;-50
2022/03/23 01:42:16;;;;;;;;;16.25;8.00;;;;;;;;5038797;28;51409;-53
2022/03/23 01:45:03;;;;;;;;;14.50;8.25;;;;;;;;5038525;28;51097;-53
2022/03/23 01:47:57;;;;;;;;;8.25;8.00;;;;;;;;5038948;28;51130;-51
2022/03/23 01:50:44;;;;;;;;;9.00;7.50;;;;;;;;5038881;28;51151;-49
2022/03/23 01:53:28;;;;;;;;;10.00;8.25;;;;;;;;5036204;28;51458;-51
2022/03/23 01:56:14;;;;;;;;;7.75;5.50;;;;;;;;5041444;28;51069;-50
2022/03/23 01:58:59;;;;;;;;;12.25;9.00;;;;;;;;5042574;28;51355;-50
2022/03/23 02:01:43;;;;;;;;;10.50;8.50;;;;;;;;5038120;28;50990;-55
2022/03/23 02:04:28;;;;;;;;;14.00;9.25;;;;;;;;5041735;28;51069;-56
2022/03/23 02:07:15;;;;;;;;;10.00;8.25;;;;;;;;5041714;28;51096;-49
2022/03/23 02:10:20;;;;;;;;;9.25;7.00;;;;;;;;5042483;28;51141;-55
2022/03/23 02:13:09;;;;;;;;;10.75;7.00;;;;;;;;5041692;28;52363;-57
2022/03/23 02:16:15;;;;;;;;;13.50;5.00;;;;;;;;5039979;28;51179;-54
2022/03/23 02:19:00;;;;;;;;;13.00;6.50;;;;;;;;5041992;28;51452;-54
2022/03/23 02:21:48;;;;;;;;;16.75;6.75;;;;;;;;5041298;28;51192;-51
2022/03/23 02:24:35;;;;;;;;;9.25;7.00;;;;;;;;5039758;28;51172;-53
2022/03/23 02:27:23;;;;;;;;;9.00;5.50;;;;;;;;5042245;28;51231;-52
2022/03/23 02:30:09;;;;;;;;;10.50;7.25;;;;;;;;5038138;28;51069;-52
2022/03/23 02:32:59;;;;;;;;;15.75;7.00;;;;;;;;5041910;28;51125;-56
2022/03/23 02:35:44;;;;;;;;;10.25;8.00;;;;;;;;5041857;28;51076;-51
2022/03/23 02:38:31;;;;;;;;;12.50;8.50;;;;;;;;5041285;28;51173;-53
2022/03/23 02:41:15;;;;;;;;;15.25;8.00;;;;;;;;5041503;28;51137;-51
2022/03/23 02:44:13;;;;;;;;;4.50;2.50;;;;;;;;5041882;28;51583;-50
2022/03/23 02:46:58;;;;;;;;;12.75;9.25;;;;;;;;5041363;28;51549;-53
2022/03/23 02:49:42;;;;;;;;;12.00;6.00;;;;;;;;5041648;28;51466;-57
2022/03/23 02:52:28;;;;;;;;;8.75;7.25;;;;;;;;5041783;28;51105;-50
2022/03/23 03:01:55;;;;;;;;;10.50;9.25;;;;;;;;5039100;28;51197;-52
2022/03/23 03:04:41;;;;;;;;;11.75;7.50;;;;;;;;5036444;28;51189;-50
2022/03/23 03:07:26;;;;;;;;;17.25;6.00;;;;;;;;5041626;28;51151;-48
2022/03/23 03:10:15;;;;;;;;;11.00;8.75;;;;;;;;5040290;28;51463;-53
2022/03/23 03:13:03;;;;;;;;;14.25;8.00;;;;;;;;5038896;28;51150;-55
2022/03/23 03:15:52;;;;;;;;;11.00;7.00;;;;;;;;5041505;28;51340;-54
2022/03/23 03:18:36;;;;;;;;;8.75;7.00;;;;;;;;5040766;28;51037;-48
2022/03/23 03:21:20;;;;;;;;;12.75;7.25;;;;;;;;5041229;28;51109;-54
2022/03/23 03:24:07;;;;;;;;;9.25;7.75;;;;;;;;5035390;28;51424;-52
2022/03/23 03:26:52;;;;;;;;;10.00;6.00;;;;;;;;5037174;28;51564;-51
2022/03/23 03:29:38;;;;;;;;;10.75;7.75;;;;;;;;5040832;28;51168;-51
2022/03/23 03:32:25;;;;;;;;;18.25;7.00;;;;;;;;5040646;28;51056;-52
2022/03/23 03:35:13;;;;;;;;;6.00;6.00;;;;;;;;5040395;28;51235;-50
2022/03/23 03:38:13;;;;;;;;;5.25;3.00;;;;;;;;5040822;28;51113;-51
2022/03/23 03:41:02;;;;;;;;;12.50;7.00;;;;;;;;5040273;28;51522;-53
2022/03/23 03:43:46;;;;;;;;;9.50;8.00;;;;;;;;5025682;28;51137;-53
2022/03/23 03:46:49;;;;;;;;;15.50;11.25;;;;;;;;5040632;28;51116;-53
2022/03/23 03:49:34;;;;;;;;;12.50;10.25;;;;;;;;5040601;28;51497;-51
2022/03/23 03:52:22;;;;;;;;;10.50;7.25;;;;;;;;5036074;28;51153;-52
2022/03/23 03:55:09;;;;;;;;;10.50;9.00;;;;;;;;5039476;28;51175;-51
2022/03/23 03:58:04;;;;;;;;;12.75;9.50;;;;;;;;5040759;28;51073;-53
2022/03/23 04:00:50;;;;;;;;;12.75;9.50;;;;;;;;5040224;28;51057;-53
2022/03/23 04:03:35;;;;;;;;;11.50;8.00;;;;;;;;5036959;28;51680;-52
2022/03/23 04:06:21;;;;;;;;;13.00;8.00;;;;;;;;5039706;28;51547;-53
2022/03/23 04:09:05;;;;;;;;;10.00;7.00;;;;;;;;5036761;28;51054;-58
2022/03/23 04:11:53;;;;;;;;;11.25;7.50;;;;;;;;5040520;28;51157;-55
2022/03/23 04:14:37;;;;;;;;;9.75;8.00;;;;;;;;5020325;28;51571;-49
2022/03/23 04:17:23;;;;;;;;;10.75;7.75;;;;;;;;5038318;28;51623;-52
2022/03/23 04:20:20;;;;;;;;;13.25;10.25;;;;;;;;5040130;28;51175;-54
2022/03/23 04:23:07;;;;;;;;;12.25;8.25;;;;;;;;5039527;28;51075;-53
2022/03/23 04:25:52;;;;;;;;;11.00;7.00;;;;;;;;5039410;28;51334;-55
2022/03/23 04:29:09;;;;;;;;;7.00;5.50;;;;;;;;5040101;28;51085;-56
2022/03/23 04:31:54;;;;;;;;;10.75;7.00;;;;;;;;5030265;28;51132;-52
2022/03/23 04:34:59;;;;;;;;;11.00;7.50;;;;;;;;5036262;28;51117;-53
2022/03/23 04:37:59;;;;;;;;;14.75;6.25;;;;;;;;5039712;28;51045;-47
2022/03/23 04:40:45;;;;;;;;;14.50;8.00;;;;;;;;5037453;28;51636;-52
2022/03/23 04:43:31;;;;;;;;;14.75;10.75;;;;;;;;5039543;28;51527;-51
2022/03/23 04:46:18;;;;;;;;;11.00;9.25;;;;;;;;5039306;28;51149;-49
2022/03/23 04:49:03;;;;;;;;;11.00;9.75;;;;;;;;5039679;28;51122;-49
2022/03/23 04:51:47;;;;;;;;;11.75;8.00;;;;;;;;5039192;28;51431;-55
2022/03/23 04:54:31;;;;;;;;;11.00;9.00;;;;;;;;5039549;28;51165;-54
2022/03/23 04:57:21;;;;;;;;;16.50;8.25;;;;;;;;5034035;28;51194;-56
2022/03/23 05:00:14;;;;;;;;;11.50;8.75;;;;;;;;5037477;28;51074;-53
2022/03/23 05:02:59;;;;;;;;;12.50;7.25;;;;;;;;5039353;28;51211;-54
2022/03/23 05:05:44;;;;;;;;;12.50;7.75;;;;;;;;5039168;28;51473;-55
2022/03/23 05:08:32;;;;;;;;;18.00;9.25;;;;;;;;5034699;28;51425;-55
2022/03/23 05:11:16;;;;;;;;;11.75;8.00;;;;;;;;5038258;28;51164;-55
2022/03/23 05:14:03;;;;;;;;;11.50;7.50;;;;;;;;5039511;28;51121;-52
2022/03/23 05:16:50;;;;;;;;;14.00;7.75;;;;;;;;5035387;28;51153;-51
2022/03/23 05:19:35;;;;;;;;;13.00;10.00;;;;;;;;5038627;28;51358;-54
2022/03/23 05:22:21;;;;;;;;;13.50;8.00;;;;;;;;5038654;28;51512;-53
2022/03/23 05:25:09;;;;;;;;;10.75;10.75;;;;;;;;5038330;28;51266;-51
2022/03/23 05:27:56;;;;;;;;;7.25;7.00;;;;;;;;5038730;28;51049;-50
2022/03/23 05:30:42;;;;;;;;;18.25;8.25;;;;;;;;5037507;28;51377;-51
2022/03/23 05:33:27;;;;;;;;;16.00;9.50;;;;;;;;5038702;28;51456;-47
2022/03/23 05:36:17;;;;;;;;;10.50;9.25;;;;;;;;5035421;28;51121;-53
2022/03/23 05:39:06;;;;;;;;;17.00;10.00;;;;;;;;5036792;28;51203;-52
2022/03/23 05:41:52;;;;;;;;;17.75;8.75;;;;;;;;5037025;28;51461;-54
2022/03/23 05:44:40;;;;;;;;;11.25;7.50;;;;;;;;5038725;28;51252;-51
2022/03/23 05:47:25;;;;;;;;;11.75;5.50;;;;;;;;5036827;28;51480;-51
2022/03/23 05:50:10;;;;;;;;;13.25;7.50;;;;;;;;5033190;28;51534;-51
2022/03/23 05:52:59;;;;;;;;;8.00;7.00;;;;;;;;5039249;28;51030;-52
2022/03/23 05:55:45;;;;;;;;;12.25;8.00;;;;;;;;5038510;28;51383;-53
2022/03/23 05:58:29;;;;;;;;;12.75;10.00;;;;;;;;5039036;28;51508;-55
2022/03/23 06:01:16;;;;;;;;;15.00;13.25;;;;;;;;5037762;28;51163;-52
2022/03/23 06:04:03;;;;;;;;;12.00;11.00;;;;;;;;5036149;28;51577;-54
2022/03/23 06:06:54;;;;;;;;;12.00;9.50;;;;;;;;5036629;28;51434;-45
2022/03/23 06:09:47;;;;;;;;;20.00;11.00;;;;;;;;5036467;28;51159;-52
2022/03/23 06:12:42;;;;;;;;;16.25;12.00;;;;;;;;5038279;28;51399;-52
2022/03/23 06:15:32;;;;;;;;;15.50;12.00;;;;;;;;5037987;28;51371;-48
2022/03/23 06:18:17;;;;;;;;;13.00;11.25;;;;;;;;5036564;28;51156;-47
2022/03/23 06:21:07;;;;;;;;;17.50;12.50;;;;;;;;5036982;28;51421;-49
2022/03/23 06:23:55;;;;;;;;;14.00;11.00;;;;;;;;5032536;28;51422;-51
2022/03/23 06:26:39;;;;;;;;;12.00;9.00;;;;;;;;5036981;28;51125;-47
2022/03/23 06:29:30;;;;;;;;;18.25;13.25;;;;;;;;5036516;28;51171;-50
2022/03/23 06:32:30;;;;;;;;;14.50;10.75;;;;;;;;5037156;28;51498;-47
2022/03/23 06:35:30;;;;;;;;;23.00;10.75;;;;;;;;5036521;28;51189;-52
2022/03/23 06:38:18;;;;;;;;;11.75;8.50;;;;;;;;5038197;28;51404;-47
2022/03/23 06:41:13;;;;;;;;;13.75;10.00;;;;;;;;5041450;28;51100;-50
2022/03/23 06:43:57;;;;;;;;;22.50;16.50;;;;;;;;5041663;28;51122;-49
2022/03/23 06:46:41;;;;;;;;;14.75;9.50;;;;;;;;5040908;28;51178;-50
2022/03/23 06:49:35;;;;;;;;;10.75;8.00;;;;;;;;5038973;28;51454;-51
2022/03/23 06:52:20;;;;;;;;;13.25;9.00;;;;;;;;5041325;28;51136;-48
2022/03/23 06:55:04;;;;;;;;;14.00;9.50;;;;;;;;5041060;28;51151;-51
2022/03/23 06:58:07;;;;;;;;;11.00;8.50;;;;;;;;5025815;28;51105;-49
2022/03/23 07:00:54;;;;;;;;;12.25;10.00;;;;;;;;5041381;28;51140;-46
2022/03/23 07:03:39;;;;;;;;;11.75;9.25;;;;;;;;5040307;28;51175;-50
2022/03/23 07:06:24;;;;;;;;;9.25;8.25;;;;;;;;5041376;28;51590;-49
2022/03/23 07:09:31;;;;;;;;;17.50;10.50;;;;;;;;5040125;28;51144;-47
2022/03/23 07:12:24;;;;;;;;;24.00;15.25;;;;;;;;5040511;28;51417;-48
2022/03/23 07:15:12;;;;;;;;;18.50;14.75;;;;;;;;5040642;28;51598;-53
2022/03/23 07:17:58;;;;;;;;;15.00;10.75;;;;;;;;5039718;28;51112;-48
2022/03/23 07:20:44;;;;;;;;;15.50;11.25;;;;;;;;5040233;28;51095;-53
2022/03/23 07:23:48;;;;;;;;;10.25;7.50;;;;;;;;5041285;28;51186;-51
2022/03/23 07:26:48;;;;;;;;;14.25;10.25;;;;;;;;5041152;28;51081;-52
2022/03/23 07:29:33;;;;;;;;;13.50;8.00;;;;;;;;5041272;28;51119;-48
2022/03/23 07:32:21;;;;;;;;;15.25;11.50;;;;;;;;5040773;28;51137;-47
2022/03/23 07:35:07;;;;;;;;;12.75;11.25;;;;;;;;5040158;28;51081;-48
2022/03/23 07:37:52;;;;;;;;;13.00;9.50;;;;;;;;5036190;28;51536;-53
2022/03/23 07:40:48;;;;;;;;;13.00;10.25;;;;;;;;5040697;28;51060;-52
2022/03/23 07:43:55;;;;;;;;;14.25;9.50;;;;;;;;5040369;28;51140;-49
2022/03/23 07:46:46;;;;;;;;;21.50;17.50;;;;;;;;5040981;28;51110;-51
2022/03/23 07:49:32;;;;;;;;;15.50;12.25;;;;;;;;5040071;28;51072;-50
2022/03/23 07:52:18;;;;;;;;;10.25;9.50;;;;;;;;5037973;28;51104;-51
2022/03/23 07:55:05;;;;;;;;;13.25;8.75;;;;;;;;5039384;28;51160;-51
2022/03/23 07:57:50;;;;;;;;;14.50;9.50;;;;;;;;5031804;28;51226;-50
2022/03/23 08:00:34;;;;;;;;;12.25;8.00;;;;;;;;5038614;28;51079;-52
2022/03/23 08:03:20;;;;;;;;;16.25;11.25;;;;;;;;5040173;28;51190;-49
2022/03/23 08:06:06;;;;;;;;;14.00;10.00;;;;;;;;5039781;28;51045;-52
2022/03/23 08:08:52;;;;;;;;;8.25;7.00;;;;;;;;5036748;28;51097;-52
2022/03/23 08:11:37;;;;;;;;;10.00;8.25;;;;;;;;5034001;28;51128;-55
2022/03/23 08:14:24;;;;;;;;;10.00;8.00;;;;;;;;5032790;28;51943;-56
2022/03/23 08:17:12;;;;;;;;;15.00;11.75;;;;;;;;5034391;28;51294;-53
2022/03/23 08:23:25;;;;;;;;;12.25;12.25;;;;;;;;5034890;28;51342;-51
2022/03/23 08:26:13;;;;;;;;;15.50;14.00;;;;;;;;5037662;28;51195;-54
2022/03/23 08:28:59;;;;;;;;;13.00;7.25;;;;;;;;5037942;28;51233;-49
2022/03/23 08:31:46;;;;;;;;;14.50;9.75;;;;;;;;5039578;28;51389;-46
2022/03/23 08:34:41;;;;;;;;;13.50;10.00;;;;;;;;5039047;28;51369;-51
2022/03/23 08:37:28;;;;;;;;;10.50;9.00;;;;;;;;5037256;28;51100;-49
2022/03/23 08:40:12;;;;;;;;;15.25;10.50;;;;;;;;5039346;28;51140;-49
2022/03/23 08:42:58;;;;;;;;;15.75;12.50;;;;;;;;5034092;28;51239;-52
2022/03/23 08:45:43;;;;;;;;;13.00;10.75;;;;;;;;5038572;28;51037;-53
2022/03/23 08:48:28;;;;;;;;;14.00;8.50;;;;;;;;5039096;28;51135;-50
2022/03/23 08:51:13;;;;;;;;;16.00;9.75;;;;;;;;5036956;28;51073;-51
2022/03/23 08:54:13;;;;;;;;;11.25;8.00;;;;;;;;5036704;28;51076;-49
2022/03/23 08:57:00;;;;;;;;;14.50;4.50;;;;;;;;5039176;28;51156;-50
2022/03/23 09:00:06;;;;;;;;;15.50;9.25;;;;;;;;5038996;28;51136;-51
2022/03/23 09:02:53;;;;;;;;;10.50;6.75;;;;;;;;5038326;28;51145;-47
2022/03/23 09:05:38;;;;;;;;;8.50;5.50;;;;;;;;5037331;28;51631;-50
2022/03/23 09:08:23;;;;;;;;;10.75;5.00;;;;;;;;5037493;28;51101;-52
2022/03/23 09:11:08;;;;;;;;;12.75;7.75;;;;;;;;5035285;28;51368;-56
2022/03/23 09:13:53;;;;;;;;;11.00;7.00;;;;;;;;5038964;28;51176;-56
2022/03/23 09:16:41;;;;;;;;;17.25;11.25;;;;;;;;5039493;28;51164;-55
2022/03/23 09:19:25;;;;;;;;;10.50;6.50;;;;;;;;5035546;28;51145;-53
2022/03/23 09:22:12;;;;;;;;;7.25;5.25;;;;;;;;5038866;28;51439;-55
2022/03/23 09:25:04;;;;;;;;;10.75;5.00;;;;;;;;5037586;28;51171;-55
2022/03/23 09:27:49;;;;;;;;;10.50;7.75;;;;;;;;5038767;28;51161;-54
2022/03/23 09:30:34;;;;;;;;;10.50;7.00;;;;;;;;5036871;28;51509;-54
2022/03/23 09:33:19;;;;;;;;;14.00;8.00;;;;;;;;5038011;28;51027;-52
2022/03/23 09:36:05;;;;;;;;;12.00;7.75;;;;;;;;5036315;28;51503;-54
2022/03/23 09:38:51;;;;;;;;;11.25;7.75;;;;;;;;5023209;28;50994;-56
2022/03/23 09:41:38;;;;;;;;;13.25;8.50;;;;;;;;5038652;28;51150;-56
2022/03/23 09:44:28;;;;;;;;;9.50;7.50;;;;;;;;5038870;28;51179;-55
2022/03/23 09:47:28;;;;;;;;;10.00;6.00;;;;;;;;5034049;28;51190;-56
2022/03/23 09:50:22;;;;;;;;;9.50;7.50;;;;;;;;5038888;28;51089;-53
2022/03/23 09:53:07;;;;;;;;;8.75;7.00;;;;;;;;5038650;28;51232;-52
2022/03/23 09:55:56;;;;;;;;;11.75;7.25;;;;;;;;5038861;28;51416;-52
2022/03/23 09:58:41;;;;;;;;;15.25;7.75;;;;;;;;5038918;28;52114;-53
2022/03/23 10:01:28;;;;;;;;;9.75;6.00;;;;;;;;5037661;28;51300;-52
2022/03/23 10:04:49;;;;;;;;;9.50;6.25;;;;;;;;5034169;28;51058;-52
2022/03/23 10:07:56;;;;;;;;;14.00;9.25;;;;;;;;4957089;28;51016;-56
2022/03/23 10:11:01;;;;;;;;;7.75;7.00;;;;;;;;5036277;28;51543;-53
2022/03/23 10:14:07;;;;;;;;;15.25;8.00;;;;;;;;5037743;28;51223;-55
2022/03/23 10:17:10;;;;;;;;;10.75;8.00;;;;;;;;5042033;28;51213;-53
2022/03/23 10:34:15;;;;;;;;;9.25;7.00;;;;;;;;4956213;28;51214;-52
2022/03/23 10:37:13;;;;;;;;;10.75;9.00;;;;;;;;4957177;28;51325;-54
2022/03/23 10:40:00;;;;;;;;;11.75;8.25;;;;;;;;4979744;28;52807;-53
2022/03/23 10:42:49;;;;;;;;;10.75;5.75;;;;;;;;4965982;28;51425;-54
2022/03/23 10:45:35;;;;;;;;;12.50;6.50;;;;;;;;4979558;28;51193;-53
2022/03/23 10:51:47;;;;;;;;;7.75;6.00;;;;;;;;4972513;28;51917;-54
2022/03/23 10:54:54;;;;;;;;;11.50;6.00;;;;;;;;4976022;28;51334;-51
2022/03/23 10:57:48;;;;;;;;;11.25;6.25;;;;;;;;4979845;28;51244;-55
2022/03/23 11:00:34;;;;;;;;;12.00;7.25;;;;;;;;4976778;28;51065;-55
2022/03/23 11:03:19;;;;;;;;;8.25;7.00;;;;;;;;4972756;28;51147;-52
2022/03/23 11:06:06;;;;;;;;;11.00;6.25;;;;;;;;4961625;28;51182;-54
2022/03/23 11:08:51;;;;;;;;;10.50;7.25;;;;;;;;4968828;28;51334;-52
2022/03/23 11:18:20;;;;;;;;;9.25;7.00;;;;;;;;4992288;28;51068;-54
2022/03/23 11:21:04;;;;;;;;;7.50;4.25;;;;;;;;4994270;28;51160;-53
2022/03/23 11:30:57;;;;;;;;;7.25;2.50;;;;;;;;4995835;28;51104;-53
2022/03/23 11:33:44;;;;;;;;;8.50;5.50;;;;;;;;4999432;28;51132;-51
2022/03/23 11:36:31;;;;;;;;;10.50;5.25;;;;;;;;4999469;28;51250;-52
2022/03/23 11:39:19;;;;;;;;;7.50;3.75;;;;;;;;4993932;28;51127;-53
2022/03/23 11:42:27;;;;;;;;;8.00;4.50;;;;;;;;4995983;28;51273;-52
2022/03/23 11:45:13;;;;;;;;;10.50;4.75;;;;;;;;4995477;28;51584;-50
2022/03/23 11:48:24;;;;;;;;;9.75;5.50;;;;;;;;4996285;28;51082;-51
2022/03/23 11:51:26;;;;;;;;;9.75;6.00;;;;;;;;4981739;28;51460;-53
2022/03/23 11:54:22;;;;;;;;;10.00;6.75;;;;;;;;4999451;28;51103;-55
2022/03/23 11:57:27;;;;;;;;;6.50;5.00;;;;;;;;5000285;28;51535;-55
2022/03/23 12:00:16;;;;;;;;;13.00;6.50;;;;;;;;4998876;28;51216;-52
2022/03/23 12:03:05;;;;;;;;;7.75;4.25;;;;;;;;4996648;28;51063;-51
2022/03/23 12:05:51;;;;;;;;;11.25;5.50;;;;;;;;4996426;28;51127;-53
2022/03/23 12:15:34;;;;;;;;;5.25;4.00;;;;;;;;4999986;28;51092;-53
2022/03/23 12:18:39;;;;;;;;;8.00;5.00;;;;;;;;4999961;28;51131;-49
2022/03/23 12:21:26;;;;;;;;;9.50;7.75;;;;;;;;5000485;28;51192;-53
2022/03/23 12:24:32;;;;;;;;;10.25;6.00;;;;;;;;5000117;28;51556;-53
2022/03/23 12:27:33;;;;;;;;;11.25;5.00;;;;;;;;5000214;28;51119;-52
2022/03/23 12:30:32;;;;;;;;;7.25;5.00;;;;;;;;5000115;28;51407;-54
2022/03/23 12:33:20;;;;;;;;;8.00;4.00;;;;;;;;5036620;28;51117;-55
2022/03/23 12:36:05;;;;;;;;;10.75;4.75;;;;;;;;5024790;28;51149;-53
2022/03/23 12:39:15;;;;;;;;;7.50;4.25;;;;;;;;5039846;28;51068;-55
2022/03/23 12:42:01;;;;;;;;;6.00;4.25;;;;;;;;5039846;28;51138;-51
2022/03/23 12:44:45;;;;;;;;;7.25;7.00;;;;;;;;5039807;28;51357;-53
2022/03/23 12:47:33;;;;;;;;;8.00;4.75;;;;;;;;5039790;28;51235;-55
2022/03/23 12:59:33;;;;;;;;;7.50;5.00;;;;;;;;5039275;28;51273;-54
2022/03/23 13:02:24;;;;;;;;;7.00;5.00;;;;;;;;5039702;28;51137;-55
2022/03/23 13:05:09;;;;;;;;;8.25;6.25;;;;;;;;5036841;28;51168;-53
2022/03/23 13:07:57;;;;;;;;;8.50;4.75;;;;;;;;5036367;28;51280;-51
2022/03/23 13:10:53;;;;;;;;;7.75;4.50;;;;;;;;5038294;28;51107;-50
2022/03/23 13:13:40;;;;;;;;;9.00;6.00;;;;;;;;5037024;28;51159;-50
2022/03/23 13:16:26;;;;;;;;;6.75;5.75;;;;;;;;5039136;28;51057;-55
2022/03/23 13:19:13;;;;;;;;;9.25;6.00;;;;;;;;5038908;28;51144;-55
2022/03/23 13:22:32;;;;;;;;;11.50;6.25;;;;;;;;5038864;28;51399;-54
2022/03/23 13:25:18;;;;;;;;;8.00;6.00;;;;;;;;5038474;28;51228;-50
2022/03/23 13:28:10;;;;;;;;;8.50;5.50;;;;;;;;5039116;28;51117;-50
2022/03/23 13:31:00;;;;;;;;;6.75;5.00;;;;;;;;5038640;28;51128;-52
2022/03/23 13:33:47;;;;;;;;;9.75;6.00;;;;;;;;5038952;28;51301;-52
2022/03/23 13:36:32;;;;;;;;;5.50;4.50;;;;;;;;5038738;28;51322;-53
2022/03/23 13:39:17;;;;;;;;;5.00;4.25;;;;;;;;5036120;28;51149;-55
2022/03/23 13:45:10;;;;;;;;;7.00;5.00;;;;;;;;5038472;28;51105;-54
2022/03/23 13:47:55;;;;;;;;;11.50;5.75;;;;;;;;5039001;28;51212;-50
2022/03/23 13:50:48;;;;;;;;;8.50;5.50;;;;;;;;5042612;28;51067;-51
2022/03/23 13:53:33;;;;;;;;;4.75;4.50;;;;;;;;5043270;28;51194;-53
2022/03/23 13:56:17;;;;;;;;;7.75;5.25;;;;;;;;5042443;28;51075;-54
2022/03/23 13:59:02;;;;;;;;;6.50;5.50;;;;;;;;5042756;28;51046;-55
2022/03/23 14:01:48;;;;;;;;;8.25;4.75;;;;;;;;5035909;28;51698;-52
2022/03/23 14:04:32;;;;;;;;;9.50;7.00;;;;;;;;5021377;28;51143;-54
2022/03/23 14:07:18;;;;;;;;;9.25;5.00;;;;;;;;5026567;28;51533;-53
2022/03/23 14:10:08;;;;;;;;;8.00;4.00;;;;;;;;5041584;28;51059;-53
2022/03/23 14:12:52;;;;;;;;;12.00;4.50;;;;;;;;5042433;28;51310;-51
2022/03/23 14:15:50;;;;;;;;;14.75;8.25;;;;;;;;5042068;28;51126;-54
2022/03/23 14:18:35;;;;;;;;;11.25;7.00;;;;;;;;5042276;28;51083;-53
2022/03/23 14:21:25;;;;;;;;;13.00;8.00;;;;;;;;5026286;28;51126;-55
2022/03/23 14:24:10;;;;;;;;;12.25;6.25;;;;;;;;5041524;28;51043;-52
2022/03/23 14:26:54;;;;;;;;;6.50;5.25;;;;;;;;5041917;28;51041;-51
2022/03/23 14:29:43;;;;;;;;;8.25;6.50;;;;;;;;5041431;28;51239;-54
2022/03/23 14:32:36;;;;;;;;;9.75;5.75;;;;;;;;5040974;28;51400;-50
2022/03/23 14:35:38;;;;;;;;;10.50;7.25;;;;;;;;5041772;28;51093;-52
2022/03/23 14:38:26;;;;;;;;;14.25;6.75;;;;;;;;5041607;28;51347;-54
2022/03/23 14:41:20;;;;;;;;;12.75;8.00;;;;;;;;5041547;28;51098;-55
2022/03/23 14:44:28;;;;;;;;;9.75;7.25;;;;;;;;5042166;28;51148;-53
2022/03/23 14:47:17;;;;;;;;;9.75;6.50;;;;;;;;5041415;28;51159;-49
2022/03/23 14:50:01;;;;;;;;;10.50;5.75;;;;;;;;5041156;28;51072;-53
2022/03/23 14:52:46;;;;;;;;;10.75;6.75;;;;;;;;5041099;28;51199;-55
2022/03/23 14:55:30;;;;;;;;;12.50;6.75;;;;;;;;5041420;28;51270;-52
2022/03/23 14:58:43;;;;;;;;;8.00;4.00;;;;;;;;5039747;28;51406;-53
2022/03/23 15:01:29;;;;;;;;;12.50;3.50;;;;;;;;5034871;28;51187;-51
2022/03/23 15:04:13;;;;;;;;;10.50;6.25;;;;;;;;5034425;28;51198;-54
2022/03/23 15:13:21;;;;;;;;;7.75;4.50;;;;;;;;5040677;28;51401;-53
2022/03/23 15:16:07;;;;;;;;;6.25;5.75;;;;;;;;5041142;28;51343;-52
2022/03/23 15:19:00;;;;;;;;;10.50;6.00;;;;;;;;5040561;28;51168;-52
2022/03/23 15:21:45;;;;;;;;;10.50;6.00;;;;;;;;5040393;28;51139;-51
2022/03/23 15:24:32;;;;;;;;;9.75;5.75;;;;;;;;5015227;28;51561;-53
2022/03/23 15:27:18;;;;;;;;;4.75;4.25;;;;;;;;5040625;28;51178;-50
2022/03/23 15:30:03;;;;;;;;;10.00;7.25;;;;;;;;5040938;28;51102;-52
2022/03/23 15:32:55;;;;;;;;;9.50;5.75;;;;;;;;5040609;28;51140;-53
2022/03/23 15:35:47;;;;;;;;;12.50;6.00;;;;;;;;5040978;28;51085;-53
2022/03/23 15:38:35;;;;;;;;;9.25;7.25;;;;;;;;5024953;28;51470;-50
2022/03/23 15:41:31;;;;;;;;;8.50;5.00;;;;;;;;5025411;28;51140;-50
2022/03/23 15:44:19;;;;;;;;;10.00;6.00;;;;;;;;5040703;28;51136;-53
2022/03/23 15:47:24;;;;;;;;;13.25;7.00;;;;;;;;5040705;28;51195;-53
2022/03/23 15:50:13;;;;;;;;;12.50;5.75;;;;;;;;5039757;28;51427;-54
2022/03/23 15:52:57;;;;;;;;;10.50;6.75;;;;;;;;5040328;28;51107;-51
2022/03/23 15:55:41;;;;;;;;;8.75;6.00;;;;;;;;5042166;28;51545;-50
2022/03/23 15:58:27;;;;;;;;;10.25;6.50;;;;;;;;5024597;28;51011;-53
2022/03/23 16:01:13;;;;;;;;;12.00;6.25;;;;;;;;5040527;28;51181;-50
2022/03/23 16:04:11;;;;;;;;;8.00;6.50;;;;;;;;5039709;28;51114;-54
2022/03/23 16:06:57;;;;;;;;;6.00;5.50;;;;;;;;5036318;28;51126;-50
2022/03/23 16:09:42;;;;;;;;;9.75;8.50;;;;;;;;5039213;28;51195;-53
2022/03/23 16:12:27;;;;;;;;;12.00;7.00;;;;;;;;5040439;28;51519;-53
2022/03/23 16:15:12;;;;;;;;;10.75;6.75;;;;;;;;5038844;28;51211;-51
2022/03/23 16:18:06;;;;;;;;;6.50;5.50;;;;;;;;5035555;28;51171;-52
2022/03/23 16:20:51;;;;;;;;;8.25;6.50;;;;;;;;5038217;28;51198;-53
2022/03/23 16:23:37;;;;;;;;;12.00;8.50;;;;;;;;5024398;28;51108;-50
2022/03/23 16:26:24;;;;;;;;;5.75;2.25;;;;;;;;5038036;28;51166;-54
2022/03/23 16:29:10;;;;;;;;;13.00;8.50;;;;;;;;5039787;28;51271;-55
2022/03/23 16:31:59;;;;;;;;;10.75;8.75;;;;;;;;5039428;28;51108;-52
2022/03/23 16:34:44;;;;;;;;;8.00;7.25;;;;;;;;5034725;28;51144;-50
2022/03/23 16:37:31;;;;;;;;;10.25;7.75;;;;;;;;5033897;28;51142;-54
2022/03/23 16:40:17;;;;;;;;;12.50;8.00;;;;;;;;5038612;28;51345;-50
2022/03/23 16:43:05;;;;;;;;;12.75;6.50;;;;;;;;5039061;28;51112;-50
2022/03/23 16:45:51;;;;;;;;;18.00;7.25;;;;;;;;5037418;28;51109;-52
2022/03/23 16:48:35;;;;;;;;;13.00;7.50;;;;;;;;5030364;28;51181;-49
2022/03/23 16:51:22;;;;;;;;;10.25;7.50;;;;;;;;5035602;28;51410;-54
2022/03/23 16:54:20;;;;;;;;;10.75;7.50;;;;;;;;5035103;28;51440;-52
2022/03/23 16:57:05;;;;;;;;;13.75;6.75;;;;;;;;5036380;28;51188;-52
2022/03/23 16:59:49;;;;;;;;;14.50;8.75;;;;;;;;5034122;28;51147;-50
2022/03/23 17:02:34;;;;;;;;;7.50;7.25;;;;;;;;5030335;28;51083;-53
2022/03/23 17:14:35;;;;;;;;;16.50;7.75;;;;;;;;5035041;28;51111;-54
2022/03/23 17:17:20;;;;;;;;;11.00;9.50;;;;;;;;5023989;28;51159;-52
2022/03/23 17:20:12;;;;;;;;;7.75;6.50;;;;;;;;5038721;28;51081;-50
2022/03/23 17:23:18;;;;;;;;;11.75;7.25;;;;;;;;5021381;28;51173;-54
2022/03/23 17:26:08;;;;;;;;;12.50;9.75;;;;;;;;5038550;28;51148;-54
2022/03/23 17:29:13;;;;;;;;;13.00;6.75;;;;;;;;5039194;28;51168;-54
2022/03/23 17:31:58;;;;;;;;;11.00;6.75;;;;;;;;5038135;28;51116;-54
2022/03/23 17:34:53;;;;;;;;;11.25;7.00;;;;;;;;5037050;28;51192;-50
2022/03/23 17:37:56;;;;;;;;;9.25;8.50;;;;;;;;5034867;28;51515;-55
2022/03/23 17:40:43;;;;;;;;;8.25;7.25;;;;;;;;5027908;28;51593;-53
2022/03/23 17:43:30;;;;;;;;;13.25;7.75;;;;;;;;5037318;28;51167;-50
2022/03/23 17:46:35;;;;;;;;;10.00;7.25;;;;;;;;5025811;28;51073;-54
2022/03/23 17:49:24;;;;;;;;;10.50;6.50;;;;;;;;5037753;28;51567;-54
2022/03/23 17:52:11;;;;;;;;;10.50;7.50;;;;;;;;5037016;28;51093;-55
2022/03/23 17:55:09;;;;;;;;;13.00;7.75;;;;;;;;5035637;28;51291;-51
2022/03/23 17:57:55;;;;;;;;;15.25;8.75;;;;;;;;5037175;28;51348;-51
2022/03/23 18:00:54;;;;;;;;;11.75;9.00;;;;;;;;5037423;28;51204;-52